sensor_id;sensor_type;location;lat;lon;timestamp;temperature;humidity
11664;DHT22;72375;59.302;18.204;2024-02-14T00:00:35;1.60;99.90
11664;DHT22;72375;59.302;18.204;2024-02-14T00:03:21;1.60;99.90
11664;DHT22;72375;59.302;18.204;2024-02-14T00:06:07;1.70;99.90
11664;DHT22;72375;59.302;18.204;2024-02-14T00:08:54;1.50;99.90
11664;DHT22;72375;59.302;18.204;2024-02-14T00:11:39;1.50;99.90
11664;DHT22;72375;59.302;18.204;2024-02-14T00:14:25;1.40;99.90
11664;DHT22;72375;59.302;18.204;2024-02-14T00:17:11;1.50;99.90
11664;DHT22;72375;59.302;18.204;2024-02-14T00:19:56;1.40;99.90
11664;DHT22;72375;59.302;18.204;2024-02-14T00:22:42;1.40;99.90
11664;DHT22;72375;59.302;18.204;2024-02-14T00:25:29;1.40;99.90
11664;DHT22;72375;59.302;18.204;2024-02-14T00:28:15;1.40;99.90
11664;DHT22;72375;59.302;18.204;2024-02-14T00:31:01;1.90;99.90
11664;DHT22;72375;59.302;18.204;2024-02-14T00:33:47;1.30;99.90
11664;DHT22;72375;59.302;18.204;2024-02-14T00:36:32;1.30;99.90
11664;DHT22;72375;59.302;18.204;2024-02-14T00:39:18;1.30;99.90
11664;DHT22;72375;59.302;18.204;2024-02-14T00:42:05;1.30;99.90
11664;DHT22;72375;59.302;18.204;2024-02-14T00:44:51;1.30;99.90
11664;DHT22;72375;59.302;18.204;2024-02-14T00:47:37;1.30;99.90
11664;DHT22;72375;59.302;18.204;2024-02-14T00:50:22;1.30;99.90
11664;DHT22;72375;59.302;18.204;2024-02-14T00:53:08;1.40;99.90
11664;DHT22;72375;59.302;18.204;2024-02-14T00:55:54;1.30;99.90
11664;DHT22;72375;59.302;18.204;2024-02-14T00:58:41;1.30;99.90
11664;DHT22;72375;59.302;18.204;2024-02-14T01:01:26;1.20;99.90
11664;DHT22;72375;59.302;18.204;2024-02-14T01:04:12;1.20;99.90
11664;DHT22;72375;59.302;18.204;2024-02-14T01:06:57;1.20;99.90
11664;DHT22;72375;59.302;18.204;2024-02-14T01:09:43;1.20;99.90
11664;DHT22;72375;59.302;18.204;2024-02-14T01:12:29;1.10;99.90
11664;DHT22;72375;59.302;18.204;2024-02-14T01:15:16;1.20;99.90
11664;DHT22;72375;59.302;18.204;2024-02-14T01:18:02;1.20;99.90
11664;DHT22;72375;59.302;18.204;2024-02-14T01:20:47;1.10;99.90
11664;DHT22;72375;59.302;18.204;2024-02-14T01:23:33;1.10;99.90
11664;DHT22;72375;59.302;18.204;2024-02-14T01:26:20;1.10;99.90
11664;DHT22;72375;59.302;18.204;2024-02-14T01:29:06;1.00;99.90
11664;DHT22;72375;59.302;18.204;2024-02-14T01:31:53;1.00;99.90
11664;DHT22;72375;59.302;18.204;2024-02-14T01:34:39;1.40;99.90
11664;DHT22;72375;59.302;18.204;2024-02-14T01:37:26;1.00;99.90
11664;DHT22;72375;59.302;18.204;2024-02-14T01:40:13;0.90;99.90
11664;DHT22;72375;59.302;18.204;2024-02-14T01:42:58;1.20;99.90
11664;DHT22;72375;59.302;18.204;2024-02-14T01:45:44;1.40;99.90
11664;DHT22;72375;59.302;18.204;2024-02-14T01:48:32;1.00;99.90
11664;DHT22;72375;59.302;18.204;2024-02-14T01:51:20;0.90;99.90
11664;DHT22;72375;59.302;18.204;2024-02-14T01:54:08;0.90;99.90
11664;DHT22;72375;59.302;18.204;2024-02-14T01:56:56;0.90;99.90
11664;DHT22;72375;59.302;18.204;2024-02-14T01:59:43;0.90;99.90
11664;DHT22;72375;59.302;18.204;2024-02-14T02:02:29;0.80;99.90
11664;DHT22;72375;59.302;18.204;2024-02-14T02:05:15;0.80;99.90
11664;DHT22;72375;59.302;18.204;2024-02-14T02:08:02;0.80;99.90
11664;DHT22;72375;59.302;18.204;2024-02-14T02:10:47;0.80;99.90
11664;DHT22;72375;59.302;18.204;2024-02-14T02:13:33;0.80;99.90
11664;DHT22;72375;59.302;18.204;2024-02-14T02:16:19;0.80;99.90
11664;DHT22;72375;59.302;18.204;2024-02-14T02:19:05;0.80;99.90
11664;DHT22;72375;59.302;18.204;2024-02-14T02:21:54;0.80;99.90
11664;DHT22;72375;59.302;18.204;2024-02-14T02:24:41;0.80;99.90
11664;DHT22;72375;59.302;18.204;2024-02-14T02:27:27;1.30;99.90
11664;DHT22;72375;59.302;18.204;2024-02-14T02:30:13;0.80;99.90
11664;DHT22;72375;59.302;18.204;2024-02-14T02:32:58;0.80;99.90
11664;DHT22;72375;59.302;18.204;2024-02-14T02:35:44;1.30;99.90
11664;DHT22;72375;59.302;18.204;2024-02-14T02:38:30;0.80;99.90
11664;DHT22;72375;59.302;18.204;2024-02-14T02:41:17;0.80;99.90
11664;DHT22;72375;59.302;18.204;2024-02-14T02:44:02;0.80;99.90
11664;DHT22;72375;59.302;18.204;2024-02-14T02:46:50;0.70;99.90
11664;DHT22;72375;59.302;18.204;2024-02-14T02:49:36;0.70;99.90
11664;DHT22;72375;59.302;18.204;2024-02-14T02:52:22;0.90;99.90
11664;DHT22;72375;59.302;18.204;2024-02-14T02:55:08;0.70;99.90
11664;DHT22;72375;59.302;18.204;2024-02-14T02:57:56;0.70;99.90
11664;DHT22;72375;59.302;18.204;2024-02-14T03:00:43;0.90;99.90
11664;DHT22;72375;59.302;18.204;2024-02-14T03:03:28;0.80;99.90
11664;DHT22;72375;59.302;18.204;2024-02-14T03:06:17;0.70;99.90
11664;DHT22;72375;59.302;18.204;2024-02-14T03:09:03;0.70;99.90
11664;DHT22;72375;59.302;18.204;2024-02-14T03:11:50;0.70;99.90
11664;DHT22;72375;59.302;18.204;2024-02-14T03:14:37;1.10;99.90
11664;DHT22;72375;59.302;18.204;2024-02-14T03:17:23;0.80;99.90
11664;DHT22;72375;59.302;18.204;2024-02-14T03:20:10;0.80;99.90
11664;DHT22;72375;59.302;18.204;2024-02-14T03:22:56;0.70;99.90
11664;DHT22;72375;59.302;18.204;2024-02-14T03:25:42;0.70;99.90
11664;DHT22;72375;59.302;18.204;2024-02-14T03:28:28;0.70;99.90
11664;DHT22;72375;59.302;18.204;2024-02-14T03:31:15;0.80;99.90
11664;DHT22;72375;59.302;18.204;2024-02-14T03:34:00;0.70;99.90
11664;DHT22;72375;59.302;18.204;2024-02-14T03:36:46;0.70;99.90
11664;DHT22;72375;59.302;18.204;2024-02-14T03:39:32;0.70;99.90
11664;DHT22;72375;59.302;18.204;2024-02-14T03:42:19;1.40;99.90
11664;DHT22;72375;59.302;18.204;2024-02-14T03:45:05;0.70;99.90
11664;DHT22;72375;59.302;18.204;2024-02-14T03:47:53;0.80;99.90
11664;DHT22;72375;59.302;18.204;2024-02-14T03:50:39;0.80;99.90
11664;DHT22;72375;59.302;18.204;2024-02-14T03:53:24;0.80;99.90
11664;DHT22;72375;59.302;18.204;2024-02-14T03:56:10;0.80;99.90
11664;DHT22;72375;59.302;18.204;2024-02-14T03:58:56;0.80;99.90
11664;DHT22;72375;59.302;18.204;2024-02-14T04:01:44;0.80;99.90
11664;DHT22;72375;59.302;18.204;2024-02-14T04:04:32;0.90;99.90
11664;DHT22;72375;59.302;18.204;2024-02-14T04:07:18;0.90;99.90
11664;DHT22;72375;59.302;18.204;2024-02-14T04:10:04;0.90;99.90
11664;DHT22;72375;59.302;18.204;2024-02-14T04:12:50;0.80;99.90
11664;DHT22;72375;59.302;18.204;2024-02-14T04:15:36;0.80;99.90
11664;DHT22;72375;59.302;18.204;2024-02-14T04:18:22;0.90;99.90
11664;DHT22;72375;59.302;18.204;2024-02-14T04:21:09;0.80;99.90
11664;DHT22;72375;59.302;18.204;2024-02-14T04:23:54;0.80;99.90
11664;DHT22;72375;59.302;18.204;2024-02-14T04:26:40;0.90;99.90
11664;DHT22;72375;59.302;18.204;2024-02-14T04:29:26;0.90;99.90
11664;DHT22;72375;59.302;18.204;2024-02-14T04:32:12;0.90;99.90
11664;DHT22;72375;59.302;18.204;2024-02-14T04:34:58;1.00;99.90
11664;DHT22;72375;59.302;18.204;2024-02-14T04:37:46;0.90;99.90
11664;DHT22;72375;59.302;18.204;2024-02-14T04:40:33;0.90;99.90
11664;DHT22;72375;59.302;18.204;2024-02-14T04:43:19;0.90;99.90
11664;DHT22;72375;59.302;18.204;2024-02-14T04:46:05;0.90;99.90
11664;DHT22;72375;59.302;18.204;2024-02-14T04:48:51;0.90;99.90
11664;DHT22;72375;59.302;18.204;2024-02-14T04:51:37;0.90;99.90
11664;DHT22;72375;59.302;18.204;2024-02-14T04:54:24;0.90;99.90
11664;DHT22;72375;59.302;18.204;2024-02-14T04:57:11;0.90;99.90
11664;DHT22;72375;59.302;18.204;2024-02-14T04:59:57;0.90;99.90
11664;DHT22;72375;59.302;18.204;2024-02-14T05:02:42;0.90;99.90
11664;DHT22;72375;59.302;18.204;2024-02-14T05:05:28;0.90;99.90
11664;DHT22;72375;59.302;18.204;2024-02-14T05:08:14;0.90;99.90
11664;DHT22;72375;59.302;18.204;2024-02-14T05:11:01;0.90;99.90
11664;DHT22;72375;59.302;18.204;2024-02-14T05:13:48;1.20;99.90
11664;DHT22;72375;59.302;18.204;2024-02-14T05:16:34;0.90;99.90
11664;DHT22;72375;59.302;18.204;2024-02-14T05:19:19;0.90;99.90
11664;DHT22;72375;59.302;18.204;2024-02-14T05:22:06;0.90;99.90
11664;DHT22;72375;59.302;18.204;2024-02-14T05:24:51;0.90;99.90
11664;DHT22;72375;59.302;18.204;2024-02-14T05:27:38;0.90;99.90
11664;DHT22;72375;59.302;18.204;2024-02-14T05:30:25;0.90;99.90
11664;DHT22;72375;59.302;18.204;2024-02-14T05:33:11;0.90;99.90
11664;DHT22;72375;59.302;18.204;2024-02-14T05:35:57;0.90;99.90
11664;DHT22;72375;59.302;18.204;2024-02-14T05:38:43;0.90;99.90
11664;DHT22;72375;59.302;18.204;2024-02-14T05:41:28;0.50;99.90
11664;DHT22;72375;59.302;18.204;2024-02-14T05:44:16;1.00;99.90
11664;DHT22;72375;59.302;18.204;2024-02-14T05:47:01;1.40;99.90
11664;DHT22;72375;59.302;18.204;2024-02-14T05:49:47;1.00;99.90
11664;DHT22;72375;59.302;18.204;2024-02-14T05:52:33;1.00;99.90
11664;DHT22;72375;59.302;18.204;2024-02-14T05:55:19;1.00;99.90
11664;DHT22;72375;59.302;18.204;2024-02-14T05:58:05;1.00;99.90
11664;DHT22;72375;59.302;18.204;2024-02-14T06:00:52;1.00;99.90
11664;DHT22;72375;59.302;18.204;2024-02-14T06:03:38;1.00;99.90
11664;DHT22;72375;59.302;18.204;2024-02-14T06:06:23;1.00;99.90
11664;DHT22;72375;59.302;18.204;2024-02-14T06:09:09;1.00;99.90
11664;DHT22;72375;59.302;18.204;2024-02-14T06:11:55;1.00;99.90
11664;DHT22;72375;59.302;18.204;2024-02-14T06:14:41;1.00;99.90
11664;DHT22;72375;59.302;18.204;2024-02-14T06:17:28;1.00;99.90
11664;DHT22;72375;59.302;18.204;2024-02-14T06:20:14;1.00;99.90
11664;DHT22;72375;59.302;18.204;2024-02-14T06:23:00;1.00;99.90
11664;DHT22;72375;59.302;18.204;2024-02-14T06:25:45;1.00;99.90
11664;DHT22;72375;59.302;18.204;2024-02-14T06:28:31;1.00;99.90
11664;DHT22;72375;59.302;18.204;2024-02-14T06:31:17;1.00;99.90
11664;DHT22;72375;59.302;18.204;2024-02-14T06:34:04;1.00;99.90
11664;DHT22;72375;59.302;18.204;2024-02-14T06:36:51;1.10;99.90
11664;DHT22;72375;59.302;18.204;2024-02-14T06:39:37;1.70;99.90
11664;DHT22;72375;59.302;18.204;2024-02-14T06:42:23;1.10;99.90
11664;DHT22;72375;59.302;18.204;2024-02-14T06:45:09;1.10;99.90
11664;DHT22;72375;59.302;18.204;2024-02-14T06:47:54;1.10;99.90
11664;DHT22;72375;59.302;18.204;2024-02-14T06:50:41;1.10;99.90
11664;DHT22;72375;59.302;18.204;2024-02-14T06:53:27;1.10;99.90
11664;DHT22;72375;59.302;18.204;2024-02-14T06:56:13;1.20;99.90
11664;DHT22;72375;59.302;18.204;2024-02-14T06:58:58;1.20;99.90
11664;DHT22;72375;59.302;18.204;2024-02-14T07:01:45;1.60;99.90
11664;DHT22;72375;59.302;18.204;2024-02-14T07:04:31;1.30;99.90
11664;DHT22;72375;59.302;18.204;2024-02-14T07:07:17;1.30;99.90
11664;DHT22;72375;59.302;18.204;2024-02-14T07:10:03;1.30;99.90
11664;DHT22;72375;59.302;18.204;2024-02-14T07:12:50;1.30;99.90
11664;DHT22;72375;59.302;18.204;2024-02-14T07:15:36;1.40;99.90
11664;DHT22;72375;59.302;18.204;2024-02-14T07:18:22;1.40;99.90
11664;DHT22;72375;59.302;18.204;2024-02-14T07:21:07;1.50;99.90
11664;DHT22;72375;59.302;18.204;2024-02-14T07:23:54;1.50;99.90
11664;DHT22;72375;59.302;18.204;2024-02-14T07:26:40;1.60;99.90
11664;DHT22;72375;59.302;18.204;2024-02-14T07:29:27;1.60;99.90
11664;DHT22;72375;59.302;18.204;2024-02-14T07:32:13;2.00;99.90
11664;DHT22;72375;59.302;18.204;2024-02-14T07:34:59;1.70;99.90
11664;DHT22;72375;59.302;18.204;2024-02-14T07:37:45;1.80;99.90
11664;DHT22;72375;59.302;18.204;2024-02-14T07:40:33;1.80;99.90
11664;DHT22;72375;59.302;18.204;2024-02-14T07:43:18;1.80;99.90
11664;DHT22;72375;59.302;18.204;2024-02-14T07:46:04;1.80;99.90
11664;DHT22;72375;59.302;18.204;2024-02-14T07:48:51;1.90;99.90
11664;DHT22;72375;59.302;18.204;2024-02-14T07:51:37;1.90;99.90
11664;DHT22;72375;59.302;18.204;2024-02-14T07:54:23;2.00;99.90
11664;DHT22;72375;59.302;18.204;2024-02-14T07:57:10;2.00;99.90
11664;DHT22;72375;59.302;18.204;2024-02-14T07:59:56;2.00;99.90
11664;DHT22;72375;59.302;18.204;2024-02-14T08:02:42;2.30;99.90
11664;DHT22;72375;59.302;18.204;2024-02-14T08:05:27;2.10;99.90
11664;DHT22;72375;59.302;18.204;2024-02-14T08:08:13;2.10;99.90
11664;DHT22;72375;59.302;18.204;2024-02-14T08:10:58;2.30;99.90
11664;DHT22;72375;59.302;18.204;2024-02-14T08:13:45;2.20;99.90
11664;DHT22;72375;59.302;18.204;2024-02-14T08:16:31;2.20;99.90
11664;DHT22;72375;59.302;18.204;2024-02-14T08:19:17;2.20;99.90
11664;DHT22;72375;59.302;18.204;2024-02-14T08:22:03;2.20;99.90
11664;DHT22;72375;59.302;18.204;2024-02-14T08:24:50;2.20;99.90
11664;DHT22;72375;59.302;18.204;2024-02-14T08:27:35;2.30;99.90
11664;DHT22;72375;59.302;18.204;2024-02-14T08:30:22;2.30;99.90
11664;DHT22;72375;59.302;18.204;2024-02-14T08:33:08;2.40;99.90
11664;DHT22;72375;59.302;18.204;2024-02-14T08:35:54;2.60;99.90
11664;DHT22;72375;59.302;18.204;2024-02-14T08:38:41;2.50;99.90
11664;DHT22;72375;59.302;18.204;2024-02-14T08:41:27;2.50;99.90
11664;DHT22;72375;59.302;18.204;2024-02-14T08:44:13;2.50;99.90
11664;DHT22;72375;59.302;18.204;2024-02-14T08:47:00;3.10;99.90
11664;DHT22;72375;59.302;18.204;2024-02-14T08:49:46;2.60;99.90
11664;DHT22;72375;59.302;18.204;2024-02-14T08:52:31;2.70;99.90
11664;DHT22;72375;59.302;18.204;2024-02-14T08:55:17;2.70;99.90
11664;DHT22;72375;59.302;18.204;2024-02-14T08:58:03;3.00;99.90
11664;DHT22;72375;59.302;18.204;2024-02-14T09:00:49;2.80;99.90
11664;DHT22;72375;59.302;18.204;2024-02-14T09:03:38;2.90;99.90
11664;DHT22;72375;59.302;18.204;2024-02-14T09:06:23;3.20;99.90
11664;DHT22;72375;59.302;18.204;2024-02-14T09:09:10;2.80;99.90
11664;DHT22;72375;59.302;18.204;2024-02-14T09:11:56;2.90;99.90
11664;DHT22;72375;59.302;18.204;2024-02-14T09:14:41;3.00;99.90
11664;DHT22;72375;59.302;18.204;2024-02-14T09:17:27;3.00;99.90
11664;DHT22;72375;59.302;18.204;2024-02-14T09:20:14;3.10;99.90
11664;DHT22;72375;59.302;18.204;2024-02-14T09:23:00;3.20;99.90
11664;DHT22;72375;59.302;18.204;2024-02-14T09:25:46;3.30;99.90
11664;DHT22;72375;59.302;18.204;2024-02-14T09:28:33;3.40;99.90
11664;DHT22;72375;59.302;18.204;2024-02-14T09:31:19;3.40;99.90
11664;DHT22;72375;59.302;18.204;2024-02-14T09:34:05;3.90;99.90
11664;DHT22;72375;59.302;18.204;2024-02-14T09:36:52;3.70;99.90
11664;DHT22;72375;59.302;18.204;2024-02-14T09:39:40;3.80;99.90
11664;DHT22;72375;59.302;18.204;2024-02-14T09:42:35;3.90;99.90
11664;DHT22;72375;59.302;18.204;2024-02-14T09:45:25;4.00;99.90
11664;DHT22;72375;59.302;18.204;2024-02-14T09:48:12;4.00;99.90
11664;DHT22;72375;59.302;18.204;2024-02-14T09:50:59;4.10;99.90
11664;DHT22;72375;59.302;18.204;2024-02-14T09:53:48;4.20;99.90
11664;DHT22;72375;59.302;18.204;2024-02-14T09:56:35;4.20;99.90
11664;DHT22;72375;59.302;18.204;2024-02-14T09:59:21;4.20;99.90
11664;DHT22;72375;59.302;18.204;2024-02-14T10:02:07;4.20;99.90
11664;DHT22;72375;59.302;18.204;2024-02-14T10:04:54;4.20;99.90
11664;DHT22;72375;59.302;18.204;2024-02-14T10:07:40;4.20;99.90
11664;DHT22;72375;59.302;18.204;2024-02-14T10:10:28;4.20;99.90
11664;DHT22;72375;59.302;18.204;2024-02-14T10:13:15;4.20;99.90
11664;DHT22;72375;59.302;18.204;2024-02-14T10:16:01;4.20;99.90
11664;DHT22;72375;59.302;18.204;2024-02-14T10:18:47;4.20;99.90
11664;DHT22;72375;59.302;18.204;2024-02-14T10:21:34;4.30;99.90
11664;DHT22;72375;59.302;18.204;2024-02-14T10:24:20;4.30;99.90
11664;DHT22;72375;59.302;18.204;2024-02-14T10:27:07;4.30;99.90
11664;DHT22;72375;59.302;18.204;2024-02-14T10:29:56;4.30;99.90
11664;DHT22;72375;59.302;18.204;2024-02-14T10:32:42;4.30;99.90
11664;DHT22;72375;59.302;18.204;2024-02-14T10:35:32;4.40;99.90
11664;DHT22;72375;59.302;18.204;2024-02-14T10:38:17;4.40;99.90
11664;DHT22;72375;59.302;18.204;2024-02-14T10:41:05;4.50;99.90
11664;DHT22;72375;59.302;18.204;2024-02-14T10:43:53;4.50;99.90
11664;DHT22;72375;59.302;18.204;2024-02-14T10:46:40;4.50;99.90
11664;DHT22;72375;59.302;18.204;2024-02-14T10:49:29;4.60;99.90
11664;DHT22;72375;59.302;18.204;2024-02-14T10:52:16;4.70;99.90
11664;DHT22;72375;59.302;18.204;2024-02-14T10:55:04;4.70;99.90
11664;DHT22;72375;59.302;18.204;2024-02-14T10:57:50;4.80;99.90
11664;DHT22;72375;59.302;18.204;2024-02-14T11:00:38;4.90;99.90
11664;DHT22;72375;59.302;18.204;2024-02-14T11:03:24;4.80;99.90
11664;DHT22;72375;59.302;18.204;2024-02-14T11:06:15;4.90;99.90
11664;DHT22;72375;59.302;18.204;2024-02-14T11:09:03;5.00;99.90
11664;DHT22;72375;59.302;18.204;2024-02-14T11:12:00;4.90;99.90
11664;DHT22;72375;59.302;18.204;2024-02-14T11:14:47;4.90;99.90
11664;DHT22;72375;59.302;18.204;2024-02-14T11:17:38;5.10;99.90
11664;DHT22;72375;59.302;18.204;2024-02-14T11:20:33;5.00;99.90
11664;DHT22;72375;59.302;18.204;2024-02-14T11:23:22;5.10;99.90
11664;DHT22;72375;59.302;18.204;2024-02-14T11:26:14;5.10;99.90
11664;DHT22;72375;59.302;18.204;2024-02-14T11:29:00;5.00;99.90
11664;DHT22;72375;59.302;18.204;2024-02-14T11:31:47;5.10;99.90
11664;DHT22;72375;59.302;18.204;2024-02-14T11:34:34;5.10;99.90
11664;DHT22;72375;59.302;18.204;2024-02-14T11:37:19;5.20;99.90
11664;DHT22;72375;59.302;18.204;2024-02-14T11:40:09;5.10;99.90
11664;DHT22;72375;59.302;18.204;2024-02-14T11:42:54;5.20;99.90
11664;DHT22;72375;59.302;18.204;2024-02-14T11:45:40;5.20;99.90
11664;DHT22;72375;59.302;18.204;2024-02-14T11:48:28;5.20;99.90
11664;DHT22;72375;59.302;18.204;2024-02-14T11:51:15;5.40;99.90
11664;DHT22;72375;59.302;18.204;2024-02-14T11:54:01;5.40;99.90
11664;DHT22;72375;59.302;18.204;2024-02-14T11:56:49;5.40;99.90
11664;DHT22;72375;59.302;18.204;2024-02-14T11:59:35;5.50;99.90
11664;DHT22;72375;59.302;18.204;2024-02-14T12:02:21;5.50;99.90
11664;DHT22;72375;59.302;18.204;2024-02-14T12:05:07;5.60;99.90
11664;DHT22;72375;59.302;18.204;2024-02-14T12:07:54;5.60;99.90
11664;DHT22;72375;59.302;18.204;2024-02-14T12:10:42;5.60;99.90
11664;DHT22;72375;59.302;18.204;2024-02-14T12:13:31;5.60;99.90
11664;DHT22;72375;59.302;18.204;2024-02-14T12:16:20;5.70;99.90
11664;DHT22;72375;59.302;18.204;2024-02-14T12:19:07;5.70;99.90
11664;DHT22;72375;59.302;18.204;2024-02-14T12:21:54;5.70;99.90
11664;DHT22;72375;59.302;18.204;2024-02-14T12:24:45;5.80;99.90
11664;DHT22;72375;59.302;18.204;2024-02-14T12:27:32;5.70;99.90
11664;DHT22;72375;59.302;18.204;2024-02-14T12:30:18;5.70;99.90
11664;DHT22;72375;59.302;18.204;2024-02-14T12:33:04;5.70;99.90
11664;DHT22;72375;59.302;18.204;2024-02-14T12:35:54;5.70;99.90
11664;DHT22;72375;59.302;18.204;2024-02-14T12:38:41;5.70;99.90
11664;DHT22;72375;59.302;18.204;2024-02-14T12:41:28;5.70;99.90
11664;DHT22;72375;59.302;18.204;2024-02-14T12:44:15;5.70;99.90
11664;DHT22;72375;59.302;18.204;2024-02-14T12:47:00;5.70;99.90
11664;DHT22;72375;59.302;18.204;2024-02-14T12:49:46;5.70;99.90
11664;DHT22;72375;59.302;18.204;2024-02-14T12:52:32;5.70;99.90
11664;DHT22;72375;59.302;18.204;2024-02-14T12:55:19;5.60;99.90
11664;DHT22;72375;59.302;18.204;2024-02-14T12:58:06;5.70;99.90
11664;DHT22;72375;59.302;18.204;2024-02-14T13:00:51;5.70;99.90
11664;DHT22;72375;59.302;18.204;2024-02-14T13:03:37;5.80;99.90
11664;DHT22;72375;59.302;18.204;2024-02-14T13:06:23;5.70;99.90
11664;DHT22;72375;59.302;18.204;2024-02-14T13:09:08;5.70;99.90
11664;DHT22;72375;59.302;18.204;2024-02-14T13:11:55;5.70;99.90
11664;DHT22;72375;59.302;18.204;2024-02-14T13:14:42;5.80;99.90
11664;DHT22;72375;59.302;18.204;2024-02-14T13:17:28;5.90;99.90
11664;DHT22;72375;59.302;18.204;2024-02-14T13:20:14;5.90;99.90
11664;DHT22;72375;59.302;18.204;2024-02-14T13:23:00;5.90;99.90
11664;DHT22;72375;59.302;18.204;2024-02-14T13:25:46;5.80;99.90
11664;DHT22;72375;59.302;18.204;2024-02-14T13:28:32;5.80;99.90
11664;DHT22;72375;59.302;18.204;2024-02-14T13:31:19;5.80;99.90
11664;DHT22;72375;59.302;18.204;2024-02-14T13:34:05;5.80;99.90
11664;DHT22;72375;59.302;18.204;2024-02-14T13:36:51;5.80;99.90
11664;DHT22;72375;59.302;18.204;2024-02-14T13:39:37;5.80;99.90
11664;DHT22;72375;59.302;18.204;2024-02-14T13:42:22;5.70;99.90
11664;DHT22;72375;59.302;18.204;2024-02-14T13:45:08;5.80;99.90
11664;DHT22;72375;59.302;18.204;2024-02-14T13:48:03;5.80;99.90
11664;DHT22;72375;59.302;18.204;2024-02-14T13:50:49;5.80;99.90
11664;DHT22;72375;59.302;18.204;2024-02-14T13:53:35;5.80;99.90
11664;DHT22;72375;59.302;18.204;2024-02-14T13:56:22;5.80;99.90
11664;DHT22;72375;59.302;18.204;2024-02-14T13:59:11;5.60;99.90
11664;DHT22;72375;59.302;18.204;2024-02-14T14:01:56;5.90;99.90
11664;DHT22;72375;59.302;18.204;2024-02-14T14:04:44;5.60;99.90
11664;DHT22;72375;59.302;18.204;2024-02-14T14:07:29;5.40;99.90
11664;DHT22;72375;59.302;18.204;2024-02-14T14:10:15;5.40;99.90
11664;DHT22;72375;59.302;18.204;2024-02-14T14:13:01;5.30;99.90
11664;DHT22;72375;59.302;18.204;2024-02-14T14:15:47;5.40;99.90
11664;DHT22;72375;59.302;18.204;2024-02-14T14:18:33;5.20;99.90
11664;DHT22;72375;59.302;18.204;2024-02-14T14:21:20;5.30;99.90
11664;DHT22;72375;59.302;18.204;2024-02-14T14:24:06;5.20;99.90
11664;DHT22;72375;59.302;18.204;2024-02-14T14:26:51;5.20;99.90
11664;DHT22;72375;59.302;18.204;2024-02-14T14:29:37;5.10;99.90
11664;DHT22;72375;59.302;18.204;2024-02-14T14:32:22;5.10;99.90
11664;DHT22;72375;59.302;18.204;2024-02-14T14:35:08;5.10;99.90
11664;DHT22;72375;59.302;18.204;2024-02-14T14:37:55;5.10;99.90
11664;DHT22;72375;59.302;18.204;2024-02-14T14:40:41;5.10;99.90
11664;DHT22;72375;59.302;18.204;2024-02-14T14:43:27;5.00;99.90
11664;DHT22;72375;59.302;18.204;2024-02-14T14:46:12;5.00;99.90
11664;DHT22;72375;59.302;18.204;2024-02-14T14:48:58;5.10;99.90
11664;DHT22;72375;59.302;18.204;2024-02-14T14:51:44;5.00;99.90
11664;DHT22;72375;59.302;18.204;2024-02-14T14:54:31;5.00;99.90
11664;DHT22;72375;59.302;18.204;2024-02-14T14:57:16;5.00;99.90
11664;DHT22;72375;59.302;18.204;2024-02-14T15:00:02;5.00;99.90
11664;DHT22;72375;59.302;18.204;2024-02-14T15:02:49;4.90;99.90
11664;DHT22;72375;59.302;18.204;2024-02-14T15:05:36;4.90;99.90
11664;DHT22;72375;59.302;18.204;2024-02-14T15:08:22;4.90;99.90
11664;DHT22;72375;59.302;18.204;2024-02-14T15:11:11;4.80;99.90
11664;DHT22;72375;59.302;18.204;2024-02-14T15:13:59;4.90;99.90
11664;DHT22;72375;59.302;18.204;2024-02-14T15:16:45;4.80;99.90
11664;DHT22;72375;59.302;18.204;2024-02-14T15:19:30;4.80;99.90
11664;DHT22;72375;59.302;18.204;2024-02-14T15:22:16;4.70;99.90
11664;DHT22;72375;59.302;18.204;2024-02-14T15:25:02;4.70;99.90
11664;DHT22;72375;59.302;18.204;2024-02-14T15:27:49;4.70;99.90
11664;DHT22;72375;59.302;18.204;2024-02-14T15:30:39;4.70;99.90
11664;DHT22;72375;59.302;18.204;2024-02-14T15:33:47;4.70;99.90
11664;DHT22;72375;59.302;18.204;2024-02-14T15:36:33;4.60;99.90
11664;DHT22;72375;59.302;18.204;2024-02-14T15:39:18;4.60;99.90
11664;DHT22;72375;59.302;18.204;2024-02-14T15:42:05;4.60;99.90
11664;DHT22;72375;59.302;18.204;2024-02-14T15:44:52;4.60;99.90
11664;DHT22;72375;59.302;18.204;2024-02-14T15:47:37;4.60;99.90
11664;DHT22;72375;59.302;18.204;2024-02-14T15:50:23;4.60;99.90
11664;DHT22;72375;59.302;18.204;2024-02-14T15:53:09;4.50;99.90
11664;DHT22;72375;59.302;18.204;2024-02-14T15:55:55;4.50;99.90
11664;DHT22;72375;59.302;18.204;2024-02-14T15:58:41;4.50;99.90
11664;DHT22;72375;59.302;18.204;2024-02-14T16:01:29;4.50;99.90
11664;DHT22;72375;59.302;18.204;2024-02-14T16:04:15;4.50;99.90
11664;DHT22;72375;59.302;18.204;2024-02-14T16:07:01;4.70;99.90
11664;DHT22;72375;59.302;18.204;2024-02-14T16:09:46;4.50;99.90
11664;DHT22;72375;59.302;18.204;2024-02-14T16:12:32;4.50;99.90
11664;DHT22;72375;59.302;18.204;2024-02-14T16:15:18;4.50;99.90
11664;DHT22;72375;59.302;18.204;2024-02-14T16:18:06;4.50;99.90
11664;DHT22;72375;59.302;18.204;2024-02-14T16:20:51;4.50;99.90
11664;DHT22;72375;59.302;18.204;2024-02-14T16:23:37;4.50;99.90
11664;DHT22;72375;59.302;18.204;2024-02-14T16:26:23;4.40;99.90
11664;DHT22;72375;59.302;18.204;2024-02-14T16:29:08;4.40;99.90
11664;DHT22;72375;59.302;18.204;2024-02-14T16:31:54;4.40;99.90
11664;DHT22;72375;59.302;18.204;2024-02-14T16:34:41;4.40;99.90
11664;DHT22;72375;59.302;18.204;2024-02-14T16:37:27;4.40;99.90
11664;DHT22;72375;59.302;18.204;2024-02-14T16:40:13;4.40;99.90
11664;DHT22;72375;59.302;18.204;2024-02-14T16:42:59;4.40;99.90
11664;DHT22;72375;59.302;18.204;2024-02-14T16:45:44;4.40;99.90
11664;DHT22;72375;59.302;18.204;2024-02-14T16:48:30;4.40;99.90
11664;DHT22;72375;59.302;18.204;2024-02-14T16:51:17;4.40;99.90
11664;DHT22;72375;59.302;18.204;2024-02-14T16:54:03;4.40;99.90
11664;DHT22;72375;59.302;18.204;2024-02-14T16:56:49;4.40;99.90
11664;DHT22;72375;59.302;18.204;2024-02-14T16:59:35;4.40;99.90
11664;DHT22;72375;59.302;18.204;2024-02-14T17:02:21;4.60;99.90
11664;DHT22;72375;59.302;18.204;2024-02-14T17:05:07;4.50;99.90
11664;DHT22;72375;59.302;18.204;2024-02-14T17:07:54;4.40;99.90
11664;DHT22;72375;59.302;18.204;2024-02-14T17:10:40;4.30;99.90
11664;DHT22;72375;59.302;18.204;2024-02-14T17:13:26;4.30;99.90
11664;DHT22;72375;59.302;18.204;2024-02-14T17:16:11;4.30;99.90
11664;DHT22;72375;59.302;18.204;2024-02-14T17:18:57;4.30;99.90
11664;DHT22;72375;59.302;18.204;2024-02-14T17:21:43;4.30;99.90
11664;DHT22;72375;59.302;18.204;2024-02-14T17:24:30;4.30;99.90
11664;DHT22;72375;59.302;18.204;2024-02-14T17:27:16;4.30;99.90
11664;DHT22;72375;59.302;18.204;2024-02-14T17:30:01;4.30;99.90